Time;durP1;ratioP1;P1;durP2;ratioP2;P2;SDS_P1;SDS_P2;PMS_P1;PMS_P2;Temp;Humidity;BMP_temperature;BMP_pressure;BME280_temperature;BME280_humidity;BME280_pressure;Samples;Min_cycle;Max_cycle;Signal;HPM_P1;HPM_P2
2021/05/05 00:00:25;;;;;;;8.05;2.50;;;;;;;6.49;66.60;98273.06;5057655;28;20511;-70
2021/05/05 00:02:52;;;;;;;5.88;2.47;;;;;;;6.48;66.93;98268.75;5054186;28;20548;-71
2021/05/05 00:05:17;;;;;;;3.08;1.92;;;;;;;6.47;66.57;98251.34;5055910;28;20037;-69
2021/05/05 00:07:43;;;;;;;5.20;2.33;;;;;;;6.44;66.96;98261.06;5056466;28;20044;-69
2021/05/05 00:10:10;;;;;;;5.40;2.75;;;;;;;6.44;67.02;98263.69;5059696;28;20365;-70
2021/05/05 00:12:36;;;;;;;7.28;2.10;;;;;;;6.47;66.87;98257.44;5061142;28;22111;-68
2021/05/05 00:15:05;;;;;;;3.10;1.90;;;;;;;6.44;67.24;98253.22;5058573;28;20044;-69
2021/05/05 00:17:31;;;;;;;3.67;2.00;;;;;;;6.44;67.11;98252.38;5057513;28;20102;-70
2021/05/05 00:19:56;;;;;;;3.55;2.20;;;;;;;6.44;68.66;98281.16;5034130;28;20029;-71
2021/05/05 00:22:21;;;;;;;3.55;1.85;;;;;;;6.45;69.08;98296.81;5051109;28;20033;-71
2021/05/05 00:24:47;;;;;;;3.33;1.90;;;;;;;6.51;69.24;98294.75;5051324;28;20040;-71
2021/05/05 00:27:14;;;;;;;6.07;2.50;;;;;;;6.51;69.27;98290.38;5051278;28;20086;-71
2021/05/05 00:29:39;;;;;;;7.68;2.75;;;;;;;6.37;67.27;98271.97;5050826;28;20052;-70
2021/05/05 00:32:05;;;;;;;5.47;2.67;;;;;;;6.31;68.65;98265.31;5050686;28;20492;-70
2021/05/05 00:34:30;;;;;;;3.45;2.00;;;;;;;6.30;69.03;98265.38;5050692;28;20600;-70
2021/05/05 00:36:56;;;;;;;10.55;3.13;;;;;;;6.30;70.22;98255.78;5032476;28;20048;-70
2021/05/05 00:39:21;;;;;;;4.68;3.10;;;;;;;6.26;70.67;98259.50;5050858;28;20125;-70
2021/05/05 00:41:46;;;;;;;4.18;2.08;;;;;;;6.20;70.19;98257.22;5049570;28;20029;-70
2021/05/05 00:44:12;;;;;;;4.85;2.85;;;;;;;6.16;71.16;98253.09;5055670;28;20094;-71
2021/05/05 00:46:39;;;;;;;4.32;2.42;;;;;;;6.14;70.86;98252.34;5069907;28;20037;-71
2021/05/05 00:49:05;;;;;;;3.92;2.40;;;;;;;6.04;70.30;98245.94;5052123;28;20032;-69
2021/05/05 00:51:30;;;;;;;5.95;3.35;;;;;;;5.99;70.34;98247.03;5067751;28;20040;-70
2021/05/05 00:53:55;;;;;;;4.18;2.15;;;;;;;5.93;71.24;98243.88;5049487;28;20061;-71
2021/05/05 00:56:21;;;;;;;3.75;2.00;;;;;;;5.92;71.01;98237.78;5049377;28;20055;-68
2021/05/05 00:58:46;;;;;;;7.32;2.83;;;;;;;5.91;71.69;98241.34;5049709;28;20411;-70
2021/05/05 01:01:11;;;;;;;6.15;2.80;;;;;;;5.89;71.36;98235.34;5026399;28;20033;-69
2021/05/05 01:03:37;;;;;;;4.53;2.60;;;;;;;5.85;71.13;98233.00;5065873;28;20032;-69
2021/05/05 01:06:03;;;;;;;6.47;3.22;;;;;;;5.80;70.88;98228.84;5068652;28;20036;-70
2021/05/05 01:08:30;;;;;;;5.78;3.45;;;;;;;5.81;71.25;98233.16;5073728;28;20037;-69
2021/05/05 01:10:56;;;;;;;5.75;2.75;;;;;;;5.83;71.78;98233.06;5087628;28;20039;-72
2021/05/05 01:13:21;;;;;;;7.18;2.88;;;;;;;5.82;70.73;98228.78;5083204;28;20086;-69
2021/05/05 01:15:46;;;;;;;8.13;4.57;;;;;;;5.85;70.84;98239.06;5069874;28;20044;-69
2021/05/05 01:18:12;;;;;;;7.25;3.90;;;;;;;5.88;71.12;98233.69;5068379;28;20024;-71
2021/05/05 01:20:38;;;;;;;4.50;3.10;;;;;;;5.92;70.59;98229.09;5051073;28;20033;-69
2021/05/05 01:23:04;;;;;;;8.02;3.63;;;;;;;5.92;70.60;98226.50;5051406;28;20408;-72
2021/05/05 01:25:29;;;;;;;7.22;2.60;;;;;;;5.93;70.99;98231.66;5066853;28;20033;-69
2021/05/05 01:27:55;;;;;;;9.10;3.58;;;;;;;5.95;70.96;98231.56;5047947;28;20037;-71
2021/05/05 01:30:21;;;;;;;6.70;3.75;;;;;;;5.95;70.76;98223.72;5070230;28;20082;-70
2021/05/05 01:32:47;;;;;;;7.47;3.03;;;;;;;5.93;70.59;98225.56;5069288;28;20067;-71
2021/05/05 01:35:15;;;;;;;12.10;4.60;;;;;;;5.90;70.65;98223.94;5069030;28;20039;-71
2021/05/05 01:37:41;;;;;;;8.82;3.50;;;;;;;5.88;70.83;98224.97;5071272;28;20031;-70
2021/05/05 01:40:09;;;;;;;7.43;3.55;;;;;;;5.88;70.38;98222.34;5089697;28;20036;-69
2021/05/05 01:42:35;;;;;;;10.05;3.92;;;;;;;5.85;70.53;98219.91;5089687;28;20038;-69
2021/05/05 01:45:00;;;;;;;9.38;4.45;;;;;;;5.87;71.03;98215.44;5089463;28;20483;-71
2021/05/05 01:47:26;;;;;;;9.40;3.75;;;;;;;5.82;70.89;98224.38;5089117;28;20040;-69
2021/05/05 01:49:51;;;;;;;8.30;3.70;;;;;;;5.87;71.11;98220.69;5089417;28;20048;-72
2021/05/05 01:52:18;;;;;;;11.82;4.40;;;;;;;5.90;71.14;98221.34;5089992;28;20507;-71
2021/05/05 01:54:44;;;;;;;8.07;4.03;;;;;;;5.95;70.88;98231.56;5089518;28;20032;-69
2021/05/05 01:57:31;;;;;;;10.48;4.20;;;;;;;6.01;70.57;98228.63;5088847;28;20082;-71
2021/05/05 01:59:58;;;;;;;8.88;3.90;;;;;;;6.02;70.84;98215.47;5089115;28;20032;-71
2021/05/05 02:02:27;;;;;;;9.82;3.80;;;;;;;6.00;70.62;98219.91;5089131;28;20032;-72
2021/05/05 02:04:53;;;;;;;11.98;3.97;;;;;;;6.02;70.35;98217.22;5086900;28;20038;-70
2021/05/05 02:07:19;;;;;;;6.97;4.10;;;;;;;6.03;70.41;98226.78;5063801;28;20463;-71
2021/05/05 02:09:44;;;;;;;9.00;3.80;;;;;;;6.03;70.30;98224.16;5050497;28;20036;-71
2021/05/05 02:12:10;;;;;;;9.88;3.60;;;;;;;6.04;70.30;98217.16;5068784;28;20098;-71
2021/05/05 02:14:35;;;;;;;19.02;5.32;;;;;;;6.06;70.50;98223.16;5069266;28;20143;-71
2021/05/05 02:17:01;;;;;;;14.93;4.00;;;;;;;6.06;69.95;98223.16;5068298;28;20044;-70
2021/05/05 02:19:26;;;;;;;13.85;5.07;;;;;;;6.10;69.28;98219.41;5068408;28;20033;-71
2021/05/05 02:21:52;;;;;;;12.43;4.45;;;;;;;6.13;69.52;98216.63;5071140;28;20036;-71
2021/05/05 02:24:17;;;;;;;22.38;4.50;;;;;;;6.16;69.34;98219.09;5081274;28;20032;-71
2021/05/05 02:26:43;;;;;;;12.02;4.72;;;;;;;6.21;69.14;98230.97;5092845;28;20032;-71
2021/05/05 02:29:08;;;;;;;10.43;4.13;;;;;;;6.30;68.75;98228.75;5093132;28;20044;-70
2021/05/05 02:31:34;;;;;;;14.35;5.72;;;;;;;6.36;69.12;98223.19;5086945;28;20060;-69
2021/05/05 02:33:59;;;;;;;11.02;4.75;;;;;;;6.41;68.72;98229.84;5069566;28;20028;-70
2021/05/05 02:36:25;;;;;;;13.85;5.30;;;;;;;6.45;68.71;98230.53;5080422;28;20043;-71
2021/05/05 02:38:51;;;;;;;16.00;5.18;;;;;;;6.47;69.29;98235.66;5073192;28;20119;-70
2021/05/05 02:41:16;;;;;;;17.50;5.47;;;;;;;6.50;69.75;98236.34;5072433;28;20028;-70
2021/05/05 02:43:41;;;;;;;17.92;5.00;;;;;;;6.56;70.12;98237.75;5072484;28;20043;-70
2021/05/05 02:46:07;;;;;;;13.20;4.97;;;;;;;6.55;68.81;98236.91;5081185;28;20402;-69
2021/05/05 02:48:33;;;;;;;14.68;4.97;;;;;;;6.56;68.59;98232.50;5065538;28;20058;-71
2021/05/05 02:50:58;;;;;;;16.98;5.45;;;;;;;6.56;68.97;98237.75;5071981;28;20062;-69
2021/05/05 02:53:23;;;;;;;16.27;5.50;;;;;;;6.59;69.73;98243.63;5072043;28;20376;-71
2021/05/05 02:55:49;;;;;;;15.60;6.10;;;;;;;6.60;68.50;98252.34;5072472;28;20033;-70
2021/05/05 02:58:14;;;;;;;16.48;5.30;;;;;;;6.60;69.43;98245.34;5072045;28;20040;-69
2021/05/05 03:00:39;;;;;;;17.95;6.43;;;;;;;6.57;69.43;98242.91;5072192;28;20032;-69
2021/05/05 03:03:05;;;;;;;19.67;5.68;;;;;;;6.57;68.90;98235.06;5072163;28;20036;-70
2021/05/05 03:05:30;;;;;;;13.60;5.25;;;;;;;6.50;67.95;98241.56;5072183;28;20035;-70
2021/05/05 03:07:55;;;;;;;17.08;6.43;;;;;;;6.48;68.64;98243.41;5072799;28;20064;-70
2021/05/05 03:10:21;;;;;;;11.57;5.07;;;;;;;6.49;68.70;98244.25;5073429;28;20064;-70
2021/05/05 03:12:46;;;;;;;11.02;5.10;;;;;;;6.44;69.10;98241.91;5072715;28;20048;-70
2021/05/05 03:15:11;;;;;;;19.52;6.40;;;;;;;6.43;68.88;98242.84;5072018;28;21667;-72
2021/05/05 03:17:38;;;;;;;15.80;4.93;;;;;;;6.46;69.44;98247.91;5072058;28;20037;-69
2021/05/05 03:20:08;;;;;;;15.18;5.53;;;;;;;6.45;68.88;98241.00;5071918;28;20037;-70
2021/05/05 03:22:34;;;;;;;17.05;4.78;;;;;;;6.47;68.67;98240.88;5071289;28;20492;-71
2021/05/05 03:24:59;;;;;;;18.50;7.18;;;;;;;6.49;68.55;98252.13;5071943;28;20094;-69
2021/05/05 03:27:24;;;;;;;14.75;5.15;;;;;;;6.51;68.70;98255.50;5071454;28;20044;-71
2021/05/05 03:29:50;;;;;;;13.25;4.93;;;;;;;6.53;67.94;98257.09;5075146;28;20047;-71
2021/05/05 03:32:15;;;;;;;12.25;4.53;;;;;;;6.54;68.12;98255.31;5073264;28;20506;-69
2021/05/05 03:34:40;;;;;;;18.33;5.13;;;;;;;6.56;67.81;98256.06;5072697;28;20112;-71
2021/05/05 03:37:06;;;;;;;11.68;4.32;;;;;;;6.57;67.52;98249.88;5072920;28;20063;-70
2021/05/05 03:39:31;;;;;;;23.58;4.95;;;;;;;6.62;67.92;98253.09;5073341;28;20507;-69
2021/05/05 03:41:57;;;;;;;12.65;4.78;;;;;;;6.66;68.35;98247.59;5072608;28;20037;-70
2021/05/05 03:44:22;;;;;;;14.82;5.40;;;;;;;6.65;67.15;98253.78;5072452;28;20033;-70
2021/05/05 03:46:47;;;;;;;15.23;5.32;;;;;;;6.64;66.86;98248.59;5071399;28;20044;-70
2021/05/05 03:49:13;;;;;;;18.35;5.43;;;;;;;6.61;67.35;98254.88;5071414;28;20071;-70
2021/05/05 03:51:38;;;;;;;11.93;4.30;;;;;;;6.60;66.95;98253.19;5053356;28;20024;-70
2021/05/05 03:54:04;;;;;;;19.65;5.35;;;;;;;6.60;67.21;98254.97;5071168;28;20170;-70
2021/05/05 03:56:30;;;;;;;11.05;5.28;;;;;;;6.60;67.67;98253.19;5052935;28;20510;-70
2021/05/05 03:58:55;;;;;;;14.02;4.85;;;;;;;6.57;67.38;98256.00;5071214;28;20048;-70
2021/05/05 04:01:21;;;;;;;12.63;5.15;;;;;;;6.55;66.68;98250.00;5071373;28;20040;-70
2021/05/05 04:03:46;;;;;;;10.43;4.30;;;;;;;6.52;68.02;98254.56;5071331;28;20036;-70
2021/05/05 04:06:11;;;;;;;14.32;5.20;;;;;;;6.54;67.76;98253.53;5070790;28;20043;-71
2021/05/05 04:08:37;;;;;;;12.23;5.60;;;;;;;6.55;67.29;98249.16;5071285;28;20625;-71
2021/05/05 04:11:03;;;;;;;15.27;5.50;;;;;;;6.55;66.34;98254.41;5070740;28;20095;-70
2021/05/05 04:13:29;;;;;;;12.93;4.60;;;;;;;6.55;67.22;98251.78;5071025;28;20094;-71
2021/05/05 04:15:55;;;;;;;9.18;4.05;;;;;;;6.55;66.74;98243.91;5070615;28;20040;-70
2021/05/05 04:18:20;;;;;;;9.43;3.42;;;;;;;6.59;66.45;98251.50;5068544;28;20033;-70
2021/05/05 04:20:46;;;;;;;12.70;5.65;;;;;;;6.61;66.65;98252.25;5069874;28;20144;-71
2021/05/05 04:23:11;;;;;;;11.48;4.38;;;;;;;6.61;67.48;98261.88;5067808;28;20052;-70
2021/05/05 04:25:37;;;;;;;16.20;6.03;;;;;;;6.63;66.87;98265.25;5032767;28;20040;-70
2021/05/05 04:28:02;;;;;;;10.98;5.03;;;;;;;6.59;67.14;98250.66;5050498;28;20095;-72
2021/05/05 04:30:28;;;;;;;8.75;5.05;;;;;;;6.58;67.08;98262.91;5050534;28;20635;-71
2021/05/05 04:32:53;;;;;;;23.70;5.55;;;;;;;6.64;67.37;98269.56;5050995;28;20044;-70
2021/05/05 04:35:20;;;;;;;14.80;6.20;;;;;;;6.57;67.27;98269.09;5052279;28;20064;-71
2021/05/05 04:37:45;;;;;;;11.90;5.03;;;;;;;6.52;67.76;98265.88;5070195;28;20037;-71
2021/05/05 04:40:11;;;;;;;12.05;5.07;;;;;;;6.53;67.58;98274.56;5070548;28;20130;-70
2021/05/05 04:42:37;;;;;;;22.92;8.18;;;;;;;6.54;67.78;98284.94;5052570;28;20037;-70
2021/05/05 04:45:05;;;;;;;14.98;5.47;;;;;;;6.53;67.69;98285.88;5070135;28;20074;-70
2021/05/05 04:47:31;;;;;;;16.10;6.15;;;;;;;6.45;67.76;98288.94;5070086;28;20045;-71
2021/05/05 04:49:57;;;;;;;16.10;5.65;;;;;;;6.48;67.95;98287.94;5070392;28;20063;-70
2021/05/05 04:52:22;;;;;;;12.23;6.07;;;;;;;6.52;68.05;98291.19;5070936;28;20044;-70
2021/05/05 04:54:47;;;;;;;22.95;6.68;;;;;;;6.55;68.07;98298.91;5070640;28;20163;-71
2021/05/05 04:57:13;;;;;;;16.25;5.32;;;;;;;6.59;67.51;98308.25;5071625;28;20037;-70
2021/05/05 04:59:38;;;;;;;19.80;6.18;;;;;;;6.61;67.45;98299.38;5071757;28;20032;-69
2021/05/05 05:02:04;;;;;;;26.08;8.18;;;;;;;6.61;68.18;98304.63;5071169;28;20393;-70
2021/05/05 05:04:30;;;;;;;14.50;5.32;;;;;;;6.62;67.14;98306.31;5072638;28;20105;-69
2021/05/05 05:06:55;;;;;;;15.73;6.22;;;;;;;6.70;67.34;98310.28;5073946;28;20036;-69
2021/05/05 05:09:20;;;;;;;16.83;7.32;;;;;;;6.72;67.52;98313.63;5094075;28;20058;-70
2021/05/05 05:11:46;;;;;;;17.25;5.75;;;;;;;6.70;66.85;98313.72;5073332;28;20145;-70
2021/05/05 05:14:11;;;;;;;15.95;6.00;;;;;;;6.72;67.17;98314.50;5072334;28;20043;-69
2021/05/05 05:16:36;;;;;;;17.98;5.70;;;;;;;6.72;66.66;98324.09;5071585;28;20024;-69
2021/05/05 05:19:02;;;;;;;15.82;5.63;;;;;;;6.74;66.66;98328.31;5070659;28;20459;-69
2021/05/05 05:21:27;;;;;;;20.75;6.28;;;;;;;6.74;66.28;98312.59;5071089;28;20032;-69
2021/05/05 05:23:52;;;;;;;13.18;5.38;;;;;;;6.76;66.22;98321.22;5072230;28;20032;-69
2021/05/05 05:26:18;;;;;;;13.60;4.95;;;;;;;6.77;66.51;98316.81;5071300;28;20029;-68
2021/05/05 05:28:43;;;;;;;10.18;5.70;;;;;;;6.76;66.75;98320.38;5054331;28;20052;-69
2021/05/05 05:31:08;;;;;;;15.23;5.97;;;;;;;6.72;66.93;98311.88;5071828;28;20032;-69
2021/05/05 05:33:34;;;;;;;9.63;5.47;;;;;;;6.70;67.34;98316.34;5072182;28;20043;-69
2021/05/05 05:35:59;;;;;;;11.18;4.35;;;;;;;6.62;66.80;98313.31;5051501;28;20477;-69
2021/05/05 05:38:25;;;;;;;10.13;5.15;;;;;;;6.62;67.78;98331.63;5069154;28;20066;-69
2021/05/05 05:40:50;;;;;;;14.23;6.15;;;;;;;6.70;68.05;98326.81;5069649;28;20096;-70
2021/05/05 05:43:15;;;;;;;12.68;4.78;;;;;;;6.61;67.25;98324.72;5069447;28;20044;-67
2021/05/05 05:45:41;;;;;;;12.85;5.25;;;;;;;6.56;67.69;98330.22;5060335;28;20405;-70
2021/05/05 05:48:06;;;;;;;16.25;5.20;;;;;;;6.53;68.14;98330.41;5059434;28;20041;-68
2021/05/05 05:50:32;;;;;;;19.05;6.45;;;;;;;6.52;68.47;98341.81;5059324;28;20112;-69
2021/05/05 05:52:58;;;;;;;15.57;5.82;;;;;;;6.52;69.50;98349.66;5039766;28;20040;-69
2021/05/05 05:55:26;;;;;;;10.55;5.03;;;;;;;6.44;69.44;98342.22;5062576;28;20029;-69
2021/05/05 05:57:52;;;;;;;14.55;6.10;;;;;;;6.44;69.40;98351.84;5058458;28;20044;-70
2021/05/05 06:00:19;;;;;;;16.38;5.97;;;;;;;6.40;68.99;98356.41;5059324;28;20042;-69
2021/05/05 06:02:44;;;;;;;9.02;5.47;;;;;;;6.33;68.75;98351.63;5058577;28;20039;-68
2021/05/05 06:05:11;;;;;;;18.15;5.15;;;;;;;6.29;68.70;98358.78;5060078;28;20416;-69
2021/05/05 06:07:36;;;;;;;11.13;4.63;;;;;;;6.29;69.04;98364.00;5054159;28;20141;-70
2021/05/05 06:10:04;;;;;;;11.05;5.60;;;;;;;6.24;70.82;98373.88;5062791;28;20563;-69
2021/05/05 06:12:29;;;;;;;18.73;6.30;;;;;;;6.14;70.31;98388.38;5064074;28;20127;-70
2021/05/05 06:14:55;;;;;;;12.30;6.07;;;;;;;6.05;70.97;98391.50;5066958;28;20243;-70
2021/05/05 06:17:21;;;;;;;8.43;4.50;;;;;;;5.95;71.13;98370.22;5069264;28;20044;-69
2021/05/05 06:19:47;;;;;;;7.50;4.00;;;;;;;5.90;71.37;98387.88;5051464;28;20055;-70
2021/05/05 06:22:12;;;;;;;15.30;4.15;;;;;;;5.90;71.87;98388.72;5069033;28;20028;-72
2021/05/05 06:24:38;;;;;;;8.63;3.72;;;;;;;5.90;70.69;98393.97;5065838;28;20112;-70
2021/05/05 06:27:05;;;;;;;7.00;3.47;;;;;;;5.92;70.14;98396.50;5068909;28;20096;-71
2021/05/05 06:29:30;;;;;;;4.32;3.40;;;;;;;5.97;69.96;98389.28;5065741;28;20404;-71
2021/05/05 06:31:56;;;;;;;8.15;3.95;;;;;;;6.12;70.24;98395.47;5063895;28;20041;-70
2021/05/05 06:34:21;;;;;;;8.82;5.70;;;;;;;6.12;69.36;98395.47;5062107;28;20056;-70
2021/05/05 06:36:47;;;;;;;7.38;4.05;;;;;;;6.34;68.63;98393.38;5043036;28;20044;-71
2021/05/05 06:39:12;;;;;;;9.30;5.35;;;;;;;6.41;69.20;98397.38;5064925;28;20192;-63
2021/05/05 06:41:39;;;;;;;13.38;5.22;;;;;;;6.49;69.56;98399.56;5060702;28;20029;-60
2021/05/05 06:44:06;;;;;;;12.52;6.45;;;;;;;6.60;69.39;98398.97;5068919;28;20028;-63
2021/05/05 06:46:33;;;;;;;6.53;4.35;;;;;;;6.87;68.19;98402.69;5062283;28;20032;-61
2021/05/05 06:48:58;;;;;;;16.55;5.28;;;;;;;6.86;69.05;98395.72;5058214;28;20037;-62
2021/05/05 06:51:24;;;;;;;8.05;5.15;;;;;;;6.66;68.83;98406.47;5064587;28;20032;-61
2021/05/05 06:53:50;;;;;;;13.98;6.80;;;;;;;6.63;70.25;98411.91;5061270;28;20041;-64
2021/05/05 06:56:15;;;;;;;11.68;6.22;;;;;;;6.62;69.64;98420.66;5056764;28;20036;-64
2021/05/05 06:58:40;;;;;;;13.45;5.03;;;;;;;6.50;70.52;98424.81;5053839;28;20025;-62
2021/05/05 07:01:06;;;;;;;10.57;4.05;;;;;;;6.21;69.63;98414.16;5040524;28;20039;-64
2021/05/05 07:03:31;;;;;;;9.40;4.55;;;;;;;6.18;69.99;98414.31;5068227;28;20120;-63
2021/05/05 07:05:58;;;;;;;8.25;4.60;;;;;;;6.49;69.84;98428.34;5067892;28;20039;-63
2021/05/05 07:08:24;;;;;;;9.23;5.50;;;;;;;7.03;68.04;98430.63;5071706;28;20037;-62
2021/05/05 07:10:50;;;;;;;9.90;5.25;;;;;;;7.02;68.51;98427.16;5071825;28;20086;-62
2021/05/05 07:13:15;;;;;;;12.45;7.22;;;;;;;7.51;67.41;98411.22;5069966;28;20033;-62
2021/05/05 07:15:40;;;;;;;11.52;7.07;;;;;;;8.28;64.13;98416.25;5065321;28;20067;-62
2021/05/05 07:18:06;;;;;;;8.20;5.88;;;;;;;8.78;63.22;98415.72;5060385;28;20075;-62
2021/05/05 07:20:31;;;;;;;7.70;5.68;;;;;;;9.31;61.41;98405.28;5051742;28;20033;-64
2021/05/05 07:22:57;;;;;;;12.13;6.78;;;;;;;9.58;59.20;98413.13;5047687;28;20074;-62
2021/05/05 07:25:22;;;;;;;13.05;5.53;;;;;;;10.12;58.58;98406.00;5056695;28;20033;-62
2021/05/05 07:27:47;;;;;;;8.88;5.50;;;;;;;10.46;57.63;98404.47;5059710;28;20040;-62
2021/05/05 07:30:14;;;;;;;11.50;5.68;;;;;;;10.89;56.37;98406.69;5066482;28;20029;-62
2021/05/05 07:32:39;;;;;;;9.13;5.47;;;;;;;11.31;54.85;98417.66;5055778;28;20033;-62
2021/05/05 07:35:06;;;;;;;6.63;4.70;;;;;;;11.19;53.38;98411.50;5045376;28;20039;-63
2021/05/05 07:38:06;;;;;;;9.90;4.63;;;;;;;10.80;53.95;98412.63;5045886;28;20037;-62
2021/05/05 07:41:06;;;;;;;8.98;3.80;;;;;;;10.43;56.07;98421.34;5052370;28;20044;-61
2021/05/05 07:48:42;;;;;;;12.25;3.88;;;;;;;10.10;53.07;98430.63;5065991;28;20052;-63
2021/05/05 07:51:08;;;;;;;6.00;4.68;;;;;;;9.78;55.41;98437.25;5065342;28;20040;-63
2021/05/05 07:53:33;;;;;;;10.13;3.97;;;;;;;9.46;56.11;98446.34;5065962;28;20050;-68
2021/05/05 07:55:59;;;;;;;6.03;4.10;;;;;;;9.30;57.85;98450.09;5065274;28;20124;-68
2021/05/05 07:58:28;;;;;;;7.88;3.33;;;;;;;9.07;57.14;98444.53;5066308;28;20032;-69
2021/05/05 08:00:54;;;;;;;9.82;4.10;;;;;;;8.80;59.15;98453.25;5066299;28;20058;-69
2021/05/05 08:03:20;;;;;;;12.95;4.75;;;;;;;8.56;60.69;98466.13;5066045;28;20495;-70
2021/05/05 08:05:45;;;;;;;9.00;4.55;;;;;;;8.40;61.26;98459.34;5065200;28;20032;-69
2021/05/05 08:08:10;;;;;;;5.35;3.92;;;;;;;8.23;61.62;98478.69;5065795;28;20112;-69
2021/05/05 08:10:37;;;;;;;6.47;3.83;;;;;;;8.07;63.21;98498.00;5065513;28;20208;-68
2021/05/05 08:13:02;;;;;;;7.20;3.17;;;;;;;7.60;63.32;98508.66;5064374;28;20560;-69
2021/05/05 08:15:31;;;;;;;11.52;4.10;;;;;;;7.06;65.28;98515.16;5039294;28;20044;-70
2021/05/05 08:17:56;;;;;;;10.77;3.70;;;;;;;6.46;66.27;98512.31;5055317;28;20088;-69
2021/05/05 08:20:22;;;;;;;9.70;3.25;;;;;;;6.05;66.48;98509.22;5056921;28;20032;-68
2021/05/05 08:22:47;;;;;;;6.03;3.72;;;;;;;5.84;67.97;98530.28;5065074;28;20056;-68
2021/05/05 08:25:13;;;;;;;9.98;5.25;;;;;;;5.69;69.53;98546.75;5065217;28;20028;-69
2021/05/05 08:27:38;;;;;;;6.53;3.30;;;;;;;5.51;70.43;98551.09;5062592;28;20098;-67
2021/05/05 08:30:04;;;;;;;8.38;2.90;;;;;;;5.30;71.19;98552.97;5065240;28;20028;-67
2021/05/05 08:32:30;;;;;;;13.77;4.32;;;;;;;5.12;72.39;98546.88;5064942;28;20032;-68
2021/05/05 08:34:55;;;;;;;4.93;3.05;;;;;;;5.14;72.98;98558.06;5065574;28;20055;-69
2021/05/05 08:37:21;;;;;;;5.45;3.80;;;;;;;5.39;71.93;98555.16;5064734;28;20032;-69
2021/05/05 08:39:46;;;;;;;9.57;4.43;;;;;;;5.70;72.65;98554.50;5048343;28;20609;-70
2021/05/05 08:42:12;;;;;;;5.05;3.22;;;;;;;5.80;71.36;98555.72;5044729;28;20041;-69
2021/05/05 08:44:40;;;;;;;5.10;2.90;;;;;;;5.87;71.85;98555.44;5044682;28;20049;-67
2021/05/05 08:47:06;;;;;;;7.05;2.95;;;;;;;6.13;70.61;98559.38;5044629;28;20045;-69
2021/05/05 08:49:32;;;;;;;5.97;3.08;;;;;;;6.62;70.66;98551.59;5044869;28;20377;-67
2021/05/05 08:52:00;;;;;;;8.05;3.78;;;;;;;7.04;68.49;98556.31;5045173;28;20045;-67
2021/05/05 08:54:25;;;;;;;5.05;3.60;;;;;;;7.38;67.47;98553.59;5057846;28;20055;-67
2021/05/05 08:56:50;;;;;;;5.43;3.55;;;;;;;8.19;64.83;98554.16;5046228;28;20487;-72
2021/05/05 08:59:18;;;;;;;10.40;4.55;;;;;;;8.37;65.48;98552.25;5063551;28;20051;-69
2021/05/05 09:01:44;;;;;;;4.28;2.70;;;;;;;8.51;62.41;98561.94;5063781;28;20443;-70
2021/05/05 09:04:10;;;;;;;5.90;2.90;;;;;;;8.64;61.13;98554.13;5065004;28;20147;-68
2021/05/05 09:06:48;;;;;;;11.30;3.20;;;;;;;8.64;61.13;98573.41;5046335;28;20404;-70
2021/05/05 09:09:33;;;;;;;6.88;3.78;;;;;;;9.47;60.50;98562.94;5044702;28;20025;-67
2021/05/05 09:11:59;;;;;;;7.80;3.47;;;;;;;10.04;57.15;98560.09;5026565;28;20033;-69
2021/05/05 09:14:27;;;;;;;5.82;2.95;;;;;;;10.46;57.36;98563.44;5044031;28;20037;-68
2021/05/05 09:16:53;;;;;;;4.38;2.58;;;;;;;10.25;57.25;98563.06;5043986;28;20228;-68
2021/05/05 09:19:18;;;;;;;6.00;2.33;;;;;;;9.76;57.10;98576.00;5044526;28;20135;-68
2021/05/05 09:21:49;;;;;;;8.63;2.53;;;;;;;9.15;58.11;98578.13;5053361;28;20029;-70
2021/05/05 09:24:27;;;;;;;9.07;3.25;;;;;;;8.56;62.00;98609.78;5065182;28;20036;-70
2021/05/05 09:27:14;;;;;;;7.35;3.53;;;;;;;7.92;65.33;98612.56;5065302;28;20040;-70
2021/05/05 09:29:41;;;;;;;11.15;2.88;;;;;;;7.59;64.93;98607.47;5046387;28;20032;-69
2021/05/05 09:32:07;;;;;;;5.20;2.08;;;;;;;7.45;63.30;98617.88;5063979;28;20052;-72
2021/05/05 09:34:33;;;;;;;5.57;2.05;;;;;;;7.37;63.06;98618.31;5061826;28;20044;-68
2021/05/05 09:37:01;;;;;;;4.47;1.83;;;;;;;7.56;65.32;98620.75;5064579;28;20036;-71
2021/05/05 09:39:32;;;;;;;5.22;2.63;;;;;;;8.15;63.41;98628.81;5065049;28;20032;-70
2021/05/05 09:41:58;;;;;;;7.07;3.30;;;;;;;9.95;59.96;98625.69;5063658;28;20036;-70
2021/05/05 09:44:24;;;;;;;10.55;3.65;;;;;;;11.16;58.29;98626.22;5046430;28;20036;-69
2021/05/05 09:46:54;;;;;;;5.05;3.72;;;;;;;12.12;54.37;98625.53;5063604;28;20424;-70
2021/05/05 09:49:29;;;;;;;5.13;2.63;;;;;;;12.65;52.17;98628.59;5063785;28;20037;-69
2021/05/05 09:52:00;;;;;;;7.25;2.53;;;;;;;12.38;52.32;98635.94;5064202;28;20075;-71
2021/05/05 09:54:26;;;;;;;5.93;3.13;;;;;;;13.03;49.85;98631.88;5061941;28;20138;-70
2021/05/05 09:56:52;;;;;;;10.18;3.10;;;;;;;12.24;51.33;98635.19;5063093;28;20051;-69
2021/05/05 09:59:18;;;;;;;4.13;2.45;;;;;;;11.31;51.50;98641.94;5063998;28;20024;-71
2021/05/05 10:02:01;;;;;;;11.25;3.25;;;;;;;10.45;55.02;98645.22;5063322;28;20048;-68
2021/05/05 10:04:26;;;;;;;6.32;3.45;;;;;;;10.38;57.35;98650.03;5063930;28;20032;-68
2021/05/05 10:07:00;;;;;;;17.63;3.80;;;;;;;11.29;53.85;98649.94;5076335;28;20509;-69
2021/05/05 10:09:27;;;;;;;6.28;3.28;;;;;;;11.02;53.53;98654.53;5066630;28;20040;-68
2021/05/05 10:11:53;;;;;;;7.47;4.25;;;;;;;12.01;51.71;98665.94;5083914;28;20039;-69
2021/05/05 10:14:20;;;;;;;9.95;2.80;;;;;;;12.35;50.07;98667.88;5065453;28;20542;-69
2021/05/05 10:16:49;;;;;;;9.95;2.97;;;;;;;11.60;52.93;98666.25;5083680;28;20048;-68
2021/05/05 10:19:24;;;;;;;9.43;2.80;;;;;;;11.81;49.50;98672.66;5084356;28;20800;-68
2021/05/05 10:21:54;;;;;;;10.93;3.50;;;;;;;11.35;52.05;98673.28;5068019;28;20130;-68
2021/05/05 10:24:24;;;;;;;6.35;2.70;;;;;;;10.98;51.33;98664.44;5063253;28;20040;-71
2021/05/05 10:26:50;;;;;;;10.10;3.20;;;;;;;11.14;48.70;98680.03;5054475;28;20048;-69
2021/05/05 10:29:17;;;;;;;8.25;4.13;;;;;;;11.81;48.35;98679.72;5064967;28;20609;-70
2021/05/05 10:31:47;;;;;;;7.82;3.38;;;;;;;11.30;50.93;98685.97;5066024;28;20040;-69
2021/05/05 10:34:25;;;;;;;8.50;4.03;;;;;;;11.01;51.56;98685.34;5047224;28;20036;-69
2021/05/05 10:36:55;;;;;;;8.27;3.42;;;;;;;11.00;49.15;98685.44;5045849;28;20040;-69
2021/05/05 10:39:21;;;;;;;5.82;3.30;;;;;;;12.06;47.51;98694.69;5045858;28;20056;-69
2021/05/05 10:41:59;;;;;;;12.57;3.40;;;;;;;13.14;45.28;98695.38;5044262;28;20432;-71
2021/05/05 10:44:44;;;;;;;7.25;3.92;;;;;;;13.39;44.66;98702.31;5047225;28;20037;-71
2021/05/05 10:47:11;;;;;;;9.90;2.83;;;;;;;12.42;45.84;98699.03;5047999;28;20575;-69
2021/05/05 10:52:26;;;;;;;9.73;4.93;;;;;;;12.80;45.22;98705.06;5038928;28;20128;-70
2021/05/05 10:54:53;;;;;;;5.30;2.72;;;;;;;12.75;46.73;98702.78;5049345;28;20292;-70
2021/05/05 10:57:19;;;;;;;5.43;3.05;;;;;;;12.56;46.84;98710.41;5050168;28;20036;-70
2021/05/05 10:59:57;;;;;;;8.25;3.50;;;;;;;12.29;48.16;98705.34;5067490;28;20040;-68
2021/05/05 11:02:37;;;;;;;5.88;2.83;;;;;;;12.10;47.84;98706.69;5052837;28;20049;-68
2021/05/05 11:05:04;;;;;;;16.33;3.47;;;;;;;11.66;49.07;98705.41;5058643;28;20043;-70
2021/05/05 11:07:55;;;;;;;7.45;3.20;;;;;;;11.63;46.88;98718.00;5052059;28;20487;-70
2021/05/05 11:10:36;;;;;;;4.93;2.53;;;;;;;11.22;47.17;98740.19;5047375;28;20468;-68
2021/05/05 11:13:24;;;;;;;13.43;3.13;;;;;;;10.64;53.27;98756.34;5046537;28;20563;-69
2021/05/05 11:15:50;;;;;;;4.80;2.03;;;;;;;9.72;54.42;98769.25;5046406;28;20049;-68
2021/05/05 11:18:27;;;;;;;6.50;2.45;;;;;;;8.78;55.98;98762.59;5046523;28;20043;-69
2021/05/05 11:21:05;;;;;;;6.53;2.08;;;;;;;8.38;53.55;98733.34;5047904;28;20096;-70
2021/05/05 11:23:37;;;;;;;4.13;1.98;;;;;;;8.32;55.07;98736.31;5062965;28;20040;-69
2021/05/05 11:26:22;;;;;;;5.13;2.20;;;;;;;8.22;55.53;98747.41;5067281;28;20050;-68
2021/05/05 11:29:02;;;;;;;6.70;2.42;;;;;;;8.08;56.43;98753.47;5067852;28;20044;-69
2021/05/05 11:31:46;;;;;;;3.70;2.08;;;;;;;8.04;58.98;98759.78;5062751;28;20051;-72
2021/05/05 11:34:21;;;;;;;5.93;2.75;;;;;;;8.03;59.26;98771.25;5068629;28;20032;-71
2021/05/05 11:36:56;;;;;;;5.40;3.03;;;;;;;8.05;58.64;98770.22;5060637;28;20057;-69
2021/05/05 11:39:27;;;;;;;9.65;2.97;;;;;;;8.12;59.13;98773.34;5063113;28;20047;-71
2021/05/05 11:42:02;;;;;;;6.80;2.55;;;;;;;8.41;59.36;98778.78;5074478;28;20048;-71
2021/05/05 11:44:47;;;;;;;4.38;2.80;;;;;;;8.83;60.87;98793.84;5073422;28;20038;-71